sensor_id;sensor_type;location;lat;lon;timestamp;pressure;altitude;pressure_sealevel;temperature;humidity
67980;BME280;54760;47.490;19.030;2022-09-09T00:01:54;99762.31;;;19.54;77.87
67980;BME280;54760;47.490;19.030;2022-09-09T00:04:30;99762.63;;;19.62;77.11
67980;BME280;54760;47.490;19.030;2022-09-09T00:12:47;99751.75;;;19.58;76.69
67980;BME280;54760;47.490;19.030;2022-09-09T00:15:20;99740.31;;;20.02;74.87
67980;BME280;54760;47.490;19.030;2022-09-09T00:17:55;99739.53;;;19.50;76.16
67980;BME280;54760;47.490;19.030;2022-09-09T00:20:45;99748.38;;;19.49;76.23
67980;BME280;54760;47.490;19.030;2022-09-09T00:23:37;99764.50;;;19.70;75.16
67980;BME280;54760;47.490;19.030;2022-09-09T00:31:37;99767.28;;;19.70;75.82
67980;BME280;54760;47.490;19.030;2022-09-09T00:34:11;99764.94;;;19.23;77.83
67980;BME280;54760;47.490;19.030;2022-09-09T00:36:38;99763.13;;;19.20;77.63
67980;BME280;54760;47.490;19.030;2022-09-09T00:39:05;99762.56;;;19.16;78.16
67980;BME280;54760;47.490;19.030;2022-09-09T00:44:33;99769.38;;;19.15;78.73
67980;BME280;54760;47.490;19.030;2022-09-09T00:47:16;99770.47;;;19.23;77.90
67980;BME280;54760;47.490;19.030;2022-09-09T00:49:57;99771.09;;;19.12;78.15
67980;BME280;54760;47.490;19.030;2022-09-09T00:53:09;99774.09;;;19.29;77.55
67980;BME280;54760;47.490;19.030;2022-09-09T00:56:02;99768.88;;;19.16;77.79
67980;BME280;54760;47.490;19.030;2022-09-09T00:58:31;99765.63;;;19.38;76.73
67980;BME280;54760;47.490;19.030;2022-09-09T01:01:11;99764.09;;;19.37;77.06
67980;BME280;54760;47.490;19.030;2022-09-09T01:03:44;99777.28;;;19.22;77.37
67980;BME280;54760;47.490;19.030;2022-09-09T01:06:32;99777.69;;;19.15;78.13
67980;BME280;54760;47.490;19.030;2022-09-09T01:09:21;99788.28;;;19.16;78.23
67980;BME280;54760;47.490;19.030;2022-09-09T01:17:23;99795.56;;;18.93;79.37
67980;BME280;54760;47.490;19.030;2022-09-09T01:23:23;99800.75;;;19.06;79.26
67980;BME280;54760;47.490;19.030;2022-09-09T01:28:37;99797.16;;;19.00;78.87
67980;BME280;54760;47.490;19.030;2022-09-09T01:31:05;99793.59;;;18.79;80.03
67980;BME280;54760;47.490;19.030;2022-09-09T01:33:32;99801.31;;;18.90;79.09
67980;BME280;54760;47.490;19.030;2022-09-09T01:36:03;99805.78;;;18.87;79.06
67980;BME280;54760;47.490;19.030;2022-09-09T01:38:32;99807.16;;;18.77;79.82
67980;BME280;54760;47.490;19.030;2022-09-09T01:40:58;99799.84;;;18.94;79.24
67980;BME280;54760;47.490;19.030;2022-09-09T01:43:25;99799.31;;;18.90;79.52
67980;BME280;54760;47.490;19.030;2022-09-09T01:45:54;99782.94;;;18.92;79.16
67980;BME280;54760;47.490;19.030;2022-09-09T01:48:21;99788.28;;;18.96;79.42
67980;BME280;54760;47.490;19.030;2022-09-09T01:50:47;99791.06;;;19.36;77.74
67980;BME280;54760;47.490;19.030;2022-09-09T01:53:14;99791.16;;;19.42;77.17
67980;BME280;54760;47.490;19.030;2022-09-09T01:55:53;99809.78;;;19.56;77.03
67980;BME280;54760;47.490;19.030;2022-09-09T01:58:32;99813.78;;;19.35;77.07
67980;BME280;54760;47.490;19.030;2022-09-09T02:03:52;99802.94;;;19.37;76.68
67980;BME280;54760;47.490;19.030;2022-09-09T02:06:35;99780.75;;;19.57;75.04
67980;BME280;54760;47.490;19.030;2022-09-09T02:09:04;99783.22;;;19.50;74.97
67980;BME280;54760;47.490;19.030;2022-09-09T02:11:30;99781.34;;;19.26;75.84
67980;BME280;54760;47.490;19.030;2022-09-09T02:14:11;99788.63;;;19.03;77.09
67980;BME280;54760;47.490;19.030;2022-09-09T02:16:56;99786.94;;;18.91;77.85
67980;BME280;54760;47.490;19.030;2022-09-09T02:19:34;99790.84;;;18.99;77.85
67980;BME280;54760;47.490;19.030;2022-09-09T02:22:02;99790.69;;;18.88;78.05
67980;BME280;54760;47.490;19.030;2022-09-09T02:24:29;99804.50;;;18.68;79.83
67980;BME280;54760;47.490;19.030;2022-09-09T02:26:57;99797.41;;;18.67;79.84
67980;BME280;54760;47.490;19.030;2022-09-09T02:29:28;99799.53;;;18.57;79.70
67980;BME280;54760;47.490;19.030;2022-09-09T02:31:59;99798.38;;;18.64;79.42
67980;BME280;54760;47.490;19.030;2022-09-09T02:34:28;99788.84;;;18.65;79.24
67980;BME280;54760;47.490;19.030;2022-09-09T02:36:57;99797.25;;;18.56;79.73
67980;BME280;54760;47.490;19.030;2022-09-09T02:39:25;99801.63;;;18.48;80.54
67980;BME280;54760;47.490;19.030;2022-09-09T02:41:50;99813.31;;;18.52;79.68
67980;BME280;54760;47.490;19.030;2022-09-09T02:44:17;99809.00;;;18.51;79.67
67980;BME280;54760;47.490;19.030;2022-09-09T02:55:18;99802.34;;;18.92;75.81
67980;BME280;54760;47.490;19.030;2022-09-09T02:57:47;99798.88;;;18.97;75.74
67980;BME280;54760;47.490;19.030;2022-09-09T03:00:13;99804.59;;;19.09;74.82
67980;BME280;54760;47.490;19.030;2022-09-09T03:02:39;99803.09;;;18.93;75.58
67980;BME280;54760;47.490;19.030;2022-09-09T03:05:05;99813.59;;;19.03;74.73
67980;BME280;54760;47.490;19.030;2022-09-09T03:07:31;99813.06;;;19.20;73.51
67980;BME280;54760;47.490;19.030;2022-09-09T03:09:56;99817.56;;;19.17;73.97
67980;BME280;54760;47.490;19.030;2022-09-09T03:12:22;99817.66;;;19.23;73.23
67980;BME280;54760;47.490;19.030;2022-09-09T03:14:47;99816.63;;;19.20;73.24
67980;BME280;54760;47.490;19.030;2022-09-09T03:17:12;99816.84;;;19.02;74.22
67980;BME280;54760;47.490;19.030;2022-09-09T03:19:38;99821.44;;;19.05;73.75
67980;BME280;54760;47.490;19.030;2022-09-09T03:22:03;99828.88;;;19.14;73.18
67980;BME280;54760;47.490;19.030;2022-09-09T03:24:29;99824.84;;;19.15;73.49
67980;BME280;54760;47.490;19.030;2022-09-09T03:26:55;99828.88;;;19.14;73.95
67980;BME280;54760;47.490;19.030;2022-09-09T03:29:21;99828.28;;;19.24;73.90
67980;BME280;54760;47.490;19.030;2022-09-09T03:31:46;99836.25;;;19.37;73.15
67980;BME280;54760;47.490;19.030;2022-09-09T03:34:12;99840.59;;;19.58;72.13
67980;BME280;54760;47.490;19.030;2022-09-09T03:36:39;99831.97;;;19.01;74.88
67980;BME280;54760;47.490;19.030;2022-09-09T03:39:04;99827.13;;;19.16;73.47
67980;BME280;54760;47.490;19.030;2022-09-09T03:41:30;99833.00;;;19.38;73.62
67980;BME280;54760;47.490;19.030;2022-09-09T03:43:56;99832.53;;;19.60;72.73
67980;BME280;54760;47.490;19.030;2022-09-09T03:46:23;99821.56;;;19.51;72.66
67980;BME280;54760;47.490;19.030;2022-09-09T03:48:49;99827.50;;;19.24;74.32
67980;BME280;54760;47.490;19.030;2022-09-09T03:51:14;99824.69;;;19.59;73.11
67980;BME280;54760;47.490;19.030;2022-09-09T03:53:41;99830.25;;;19.03;75.61
67980;BME280;54760;47.490;19.030;2022-09-09T03:56:07;99838.94;;;19.31;74.58
67980;BME280;54760;47.490;19.030;2022-09-09T03:58:36;99846.94;;;19.24;74.23
67980;BME280;54760;47.490;19.030;2022-09-09T04:01:13;99844.97;;;19.10;74.32
67980;BME280;54760;47.490;19.030;2022-09-09T04:03:40;99840.81;;;18.85;76.82
67980;BME280;54760;47.490;19.030;2022-09-09T04:06:07;99845.94;;;19.27;74.79
67980;BME280;54760;47.490;19.030;2022-09-09T04:08:33;99842.16;;;18.45;79.10
67980;BME280;54760;47.490;19.030;2022-09-09T04:11:01;99838.72;;;19.15;76.28
67980;BME280;54760;47.490;19.030;2022-09-09T04:13:27;99839.84;;;18.88;76.83
67980;BME280;54760;47.490;19.030;2022-09-09T04:15:57;99835.75;;;18.83;77.06
67980;BME280;54760;47.490;19.030;2022-09-09T04:18:23;99837.22;;;19.34;75.04
67980;BME280;54760;47.490;19.030;2022-09-09T04:20:50;99834.47;;;18.99;76.26
67980;BME280;54760;47.490;19.030;2022-09-09T04:23:17;99840.81;;;18.41;78.69
67980;BME280;54760;47.490;19.030;2022-09-09T04:25:48;99839.66;;;18.33;79.18
67980;BME280;54760;47.490;19.030;2022-09-09T04:28:16;99839.97;;;18.35;78.69
67980;BME280;54760;47.490;19.030;2022-09-09T04:30:42;99842.16;;;18.31;77.57
67980;BME280;54760;47.490;19.030;2022-09-09T04:33:08;99834.59;;;18.16;78.97
67980;BME280;54760;47.490;19.030;2022-09-09T04:35:35;99832.41;;;18.21;79.01
67980;BME280;54760;47.490;19.030;2022-09-09T04:38:00;99842.34;;;18.27;78.68
67980;BME280;54760;47.490;19.030;2022-09-09T04:40:28;99845.28;;;18.09;79.09
67980;BME280;54760;47.490;19.030;2022-09-09T04:42:54;99842.16;;;18.31;77.88
67980;BME280;54760;47.490;19.030;2022-09-09T04:45:20;99846.25;;;18.94;75.03
67980;BME280;54760;47.490;19.030;2022-09-09T04:47:45;99839.84;;;18.44;76.24
67980;BME280;54760;47.490;19.030;2022-09-09T04:50:10;99832.22;;;18.53;75.92
67980;BME280;54760;47.490;19.030;2022-09-09T04:52:37;99833.87;;;18.60;75.70
67980;BME280;54760;47.490;19.030;2022-09-09T04:55:02;99840.91;;;18.32;76.62
67980;BME280;54760;47.490;19.030;2022-09-09T04:57:28;99835.78;;;18.54;75.82
67980;BME280;54760;47.490;19.030;2022-09-09T04:59:54;99831.28;;;18.56;75.72
67980;BME280;54760;47.490;19.030;2022-09-09T05:02:19;99834.50;;;18.26;77.30
67980;BME280;54760;47.490;19.030;2022-09-09T05:04:44;99839.00;;;19.17;73.91
67980;BME280;54760;47.490;19.030;2022-09-09T05:07:10;99848.56;;;19.16;73.84
67980;BME280;54760;47.490;19.030;2022-09-09T05:09:35;99853.97;;;19.04;74.07
67980;BME280;54760;47.490;19.030;2022-09-09T05:12:01;99842.06;;;19.19;72.86
67980;BME280;54760;47.490;19.030;2022-09-09T05:14:27;99845.78;;;19.16;73.78
67980;BME280;54760;47.490;19.030;2022-09-09T05:16:53;99848.25;;;18.93;73.77
67980;BME280;54760;47.490;19.030;2022-09-09T05:19:18;99849.25;;;18.76;74.46
67980;BME280;54760;47.490;19.030;2022-09-09T05:21:45;99843.63;;;19.05;73.20
67980;BME280;54760;47.490;19.030;2022-09-09T05:24:10;99841.09;;;19.22;72.42
67980;BME280;54760;47.490;19.030;2022-09-09T05:26:36;99844.88;;;19.39;71.64
67980;BME280;54760;47.490;19.030;2022-09-09T05:29:01;99845.19;;;19.26;71.61
67980;BME280;54760;47.490;19.030;2022-09-09T05:31:29;99849.03;;;19.29;71.73
67980;BME280;54760;47.490;19.030;2022-09-09T05:33:55;99842.22;;;19.30;71.91
67980;BME280;54760;47.490;19.030;2022-09-09T05:36:22;99846.41;;;19.40;71.76
67980;BME280;54760;47.490;19.030;2022-09-09T05:38:48;99846.47;;;19.45;71.20
67980;BME280;54760;47.490;19.030;2022-09-09T05:41:14;99839.75;;;19.72;70.31
67980;BME280;54760;47.490;19.030;2022-09-09T05:43:41;99844.03;;;19.94;69.64
67980;BME280;54760;47.490;19.030;2022-09-09T05:46:15;99849.00;;;20.10;69.59
67980;BME280;54760;47.490;19.030;2022-09-09T05:48:42;99854.13;;;20.17;69.08
67980;BME280;54760;47.490;19.030;2022-09-09T05:51:10;99855.19;;;20.45;67.67
67980;BME280;54760;47.490;19.030;2022-09-09T05:53:41;99860.50;;;20.74;66.73
67980;BME280;54760;47.490;19.030;2022-09-09T05:56:10;99863.81;;;20.79;66.90
67980;BME280;54760;47.490;19.030;2022-09-09T05:58:43;99861.25;;;20.23;68.76
67980;BME280;54760;47.490;19.030;2022-09-09T06:01:15;99860.06;;;20.30;68.75
67980;BME280;54760;47.490;19.030;2022-09-09T06:03:42;99865.63;;;20.82;66.94
67980;BME280;54760;47.490;19.030;2022-09-09T06:06:10;99863.81;;;20.79;66.98
67980;BME280;54760;47.490;19.030;2022-09-09T06:08:38;99858.88;;;20.62;67.29
67980;BME280;54760;47.490;19.030;2022-09-09T06:11:09;99863.00;;;22.00;63.19
67980;BME280;54760;47.490;19.030;2022-09-09T06:13:36;99862.75;;;23.59;57.97
67980;BME280;54760;47.490;19.030;2022-09-09T06:16:11;99857.84;;;24.58;54.80
67980;BME280;54760;47.490;19.030;2022-09-09T06:18:38;99867.94;;;25.51;51.92
67980;BME280;54760;47.490;19.030;2022-09-09T06:21:05;99861.19;;;25.65;50.42
67980;BME280;54760;47.490;19.030;2022-09-09T06:23:32;99861.97;;;24.16;53.32
67980;BME280;54760;47.490;19.030;2022-09-09T06:28:27;99862.78;;;23.31;56.45
67980;BME280;54760;47.490;19.030;2022-09-09T06:31:11;99859.94;;;24.11;53.89
67980;BME280;54760;47.490;19.030;2022-09-09T06:33:38;99872.25;;;25.52;50.44
67980;BME280;54760;47.490;19.030;2022-09-09T06:36:07;99865.03;;;26.56;46.79
67980;BME280;54760;47.490;19.030;2022-09-09T06:38:33;99855.03;;;27.19;45.08
67980;BME280;54760;47.490;19.030;2022-09-09T06:40:59;99852.09;;;27.77;43.54
67980;BME280;54760;47.490;19.030;2022-09-09T06:43:25;99854.97;;;27.50;44.24
67980;BME280;54760;47.490;19.030;2022-09-09T06:45:56;99853.41;;;27.89;44.64
67980;BME280;54760;47.490;19.030;2022-09-09T06:48:21;99855.28;;;27.60;43.66
67980;BME280;54760;47.490;19.030;2022-09-09T06:50:47;99863.03;;;26.69;45.32
67980;BME280;54760;47.490;19.030;2022-09-09T06:53:16;99860.59;;;26.47;46.13
67980;BME280;54760;47.490;19.030;2022-09-09T06:55:41;99866.00;;;25.89;47.65
67980;BME280;54760;47.490;19.030;2022-09-09T06:58:09;99868.19;;;25.53;48.64
67980;BME280;54760;47.490;19.030;2022-09-09T07:00:34;99862.75;;;25.36;49.30
67980;BME280;54760;47.490;19.030;2022-09-09T07:03:03;99869.56;;;24.92;50.36
67980;BME280;54760;47.490;19.030;2022-09-09T07:05:28;99871.31;;;24.95;50.53
67980;BME280;54760;47.490;19.030;2022-09-09T07:07:53;99878.84;;;24.76;50.32
67980;BME280;54760;47.490;19.030;2022-09-09T07:10:19;99880.66;;;23.86;52.56
67980;BME280;54760;47.490;19.030;2022-09-09T07:12:44;99881.25;;;23.62;53.28
67980;BME280;54760;47.490;19.030;2022-09-09T07:15:10;99887.16;;;23.37;54.82
67980;BME280;54760;47.490;19.030;2022-09-09T07:17:35;99893.75;;;22.44;57.02
67980;BME280;54760;47.490;19.030;2022-09-09T07:20:01;99887.19;;;23.14;56.11
67980;BME280;54760;47.490;19.030;2022-09-09T07:22:28;99883.50;;;26.14;48.22
67980;BME280;54760;47.490;19.030;2022-09-09T07:24:54;99871.34;;;27.86;43.25
67980;BME280;54760;47.490;19.030;2022-09-09T07:27:19;99871.41;;;29.23;40.10
67980;BME280;54760;47.490;19.030;2022-09-09T07:29:44;99875.72;;;29.17;40.09
67980;BME280;54760;47.490;19.030;2022-09-09T07:32:10;99881.47;;;29.32;39.37
67980;BME280;54760;47.490;19.030;2022-09-09T07:34:36;99882.13;;;30.33;37.62
67980;BME280;54760;47.490;19.030;2022-09-09T07:37:01;99892.53;;;31.74;34.97
67980;BME280;54760;47.490;19.030;2022-09-09T07:39:27;99892.06;;;33.15;32.93
67980;BME280;54760;47.490;19.030;2022-09-09T07:41:52;99885.63;;;33.91;31.29
67980;BME280;54760;47.490;19.030;2022-09-09T07:44:23;99885.88;;;33.51;31.11
67980;BME280;54760;47.490;19.030;2022-09-09T07:46:52;99888.72;;;34.56;29.82
67980;BME280;54760;47.490;19.030;2022-09-09T07:49:17;99893.31;;;35.25;28.16
67980;BME280;54760;47.490;19.030;2022-09-09T07:51:46;99889.63;;;35.41;27.54
67980;BME280;54760;47.490;19.030;2022-09-09T07:54:14;99890.25;;;35.78;26.90
67980;BME280;54760;47.490;19.030;2022-09-09T07:56:41;99885.22;;;36.36;26.95
67980;BME280;54760;47.490;19.030;2022-09-09T07:59:07;99880.97;;;36.87;25.27
67980;BME280;54760;47.490;19.030;2022-09-09T08:01:36;99882.69;;;36.31;25.51
67980;BME280;54760;47.490;19.030;2022-09-09T08:04:08;99885.06;;;36.84;24.91
67980;BME280;54760;47.490;19.030;2022-09-09T08:06:39;99881.03;;;37.51;25.32
67980;BME280;54760;47.490;19.030;2022-09-09T08:09:06;99885.28;;;38.04;23.31
67980;BME280;54760;47.490;19.030;2022-09-09T08:11:32;99881.66;;;38.60;23.52
67980;BME280;54760;47.490;19.030;2022-09-09T08:13:58;99876.53;;;39.05;22.06
67980;BME280;54760;47.490;19.030;2022-09-09T08:16:26;99876.69;;;39.56;21.24
67980;BME280;54760;47.490;19.030;2022-09-09T08:18:53;99875.69;;;40.52;21.38
67980;BME280;54760;47.490;19.030;2022-09-09T08:21:29;99870.44;;;40.74;20.25
67980;BME280;54760;47.490;19.030;2022-09-09T08:23:58;99870.63;;;41.05;19.86
67980;BME280;54760;47.490;19.030;2022-09-09T08:26:32;99875.41;;;41.71;19.07
67980;BME280;54760;47.490;19.030;2022-09-09T08:29:00;99866.59;;;41.67;18.36
67980;BME280;54760;47.490;19.030;2022-09-09T08:31:32;99870.56;;;41.03;18.45
67980;BME280;54760;47.490;19.030;2022-09-09T08:33:59;99872.41;;;41.54;17.93
67980;BME280;54760;47.490;19.030;2022-09-09T08:36:27;99872.94;;;41.50;17.88
67980;BME280;54760;47.490;19.030;2022-09-09T08:38:54;99865.19;;;42.58;18.16
67980;BME280;54760;47.490;19.030;2022-09-09T08:50:16;99865.63;;;44.04;15.59
67980;BME280;54760;47.490;19.030;2022-09-09T08:55:25;99864.28;;;43.36;16.62
67980;BME280;54760;47.490;19.030;2022-09-09T08:57:54;99873.69;;;44.82;16.21
67980;BME280;54760;47.490;19.030;2022-09-09T09:00:20;99873.50;;;46.29;15.31
67980;BME280;54760;47.490;19.030;2022-09-09T09:02:59;99867.38;;;46.17;13.92
67980;BME280;54760;47.490;19.030;2022-09-09T09:05:37;99867.97;;;46.61;14.68
67980;BME280;54760;47.490;19.030;2022-09-09T09:10:58;99854.72;;;46.53;14.36
67980;BME280;54760;47.490;19.030;2022-09-09T09:13:47;99852.81;;;45.91;12.93
67980;BME280;54760;47.490;19.030;2022-09-09T09:16:31;99842.84;;;46.67;13.24
67980;BME280;54760;47.490;19.030;2022-09-09T09:18:59;99849.34;;;45.72;13.36
67980;BME280;54760;47.490;19.030;2022-09-09T09:21:36;99839.78;;;46.89;12.19
67980;BME280;54760;47.490;19.030;2022-09-09T09:24:16;99840.06;;;46.73;12.41
67980;BME280;54760;47.490;19.030;2022-09-09T09:26:43;99825.72;;;46.77;11.52
67980;BME280;54760;47.490;19.030;2022-09-09T09:29:15;99813.16;;;46.94;12.30
67980;BME280;54760;47.490;19.030;2022-09-09T09:31:48;99815.00;;;45.61;12.75
67980;BME280;54760;47.490;19.030;2022-09-09T09:34:16;99801.88;;;46.53;11.73
67980;BME280;54760;47.490;19.030;2022-09-09T09:36:56;99799.66;;;46.77;11.72
67980;BME280;54760;47.490;19.030;2022-09-09T09:39:27;99824.72;;;47.22;12.20
67980;BME280;54760;47.490;19.030;2022-09-09T09:41:54;99825.81;;;47.07;11.31
67980;BME280;54760;47.490;19.030;2022-09-09T09:44:27;99820.75;;;47.35;10.83
67980;BME280;54760;47.490;19.030;2022-09-09T09:47:08;99834.16;;;46.18;12.18
67980;BME280;54760;47.490;19.030;2022-09-09T09:49:33;99836.44;;;47.86;11.96
67980;BME280;54760;47.490;19.030;2022-09-09T09:52:03;99827.22;;;47.94;10.83
67980;BME280;54760;47.490;19.030;2022-09-09T09:54:33;99836.88;;;47.15;12.04
67980;BME280;54760;47.490;19.030;2022-09-09T09:57:28;99827.34;;;47.10;11.66
67980;BME280;54760;47.490;19.030;2022-09-09T10:00:12;99837.38;;;45.60;12.15
67980;BME280;54760;47.490;19.030;2022-09-09T10:02:40;99836.59;;;46.27;12.01
67980;BME280;54760;47.490;19.030;2022-09-09T10:05:22;99843.56;;;45.51;12.55
67980;BME280;54760;47.490;19.030;2022-09-09T10:08:09;99834.81;;;46.66;12.28
67980;BME280;54760;47.490;19.030;2022-09-09T10:18:47;99820.03;;;46.06;10.73
67980;BME280;54760;47.490;19.030;2022-09-09T10:30:16;99812.03;;;47.06;10.64
67980;BME280;54760;47.490;19.030;2022-09-09T10:35:30;99803.75;;;46.42;11.14
67980;BME280;54760;47.490;19.030;2022-09-09T10:53:51;99826.31;;;46.22;12.36
67980;BME280;54760;47.490;19.030;2022-09-09T10:56:20;99814.97;;;46.06;11.08
67980;BME280;54760;47.490;19.030;2022-09-09T11:01:46;99818.31;;;44.88;12.92
67980;BME280;54760;47.490;19.030;2022-09-09T11:04:19;99812.75;;;42.75;14.50
67980;BME280;54760;47.490;19.030;2022-09-09T11:06:51;99819.97;;;43.61;15.11
67980;BME280;54760;47.490;19.030;2022-09-09T11:09:22;99809.47;;;44.42;13.25
67980;BME280;54760;47.490;19.030;2022-09-09T11:11:54;99815.38;;;44.47;13.00
67980;BME280;54760;47.490;19.030;2022-09-09T11:16:57;99808.88;;;44.66;12.97
67980;BME280;54760;47.490;19.030;2022-09-09T11:19:33;99811.28;;;44.73;13.17
67980;BME280;54760;47.490;19.030;2022-09-09T11:24:47;99797.13;;;43.85;14.13
67980;BME280;54760;47.490;19.030;2022-09-09T11:27:29;99800.72;;;44.80;13.10
67980;BME280;54760;47.490;19.030;2022-09-09T11:30:05;99795.69;;;44.80;13.63
67980;BME280;54760;47.490;19.030;2022-09-09T11:35:53;99799.59;;;43.22;14.03
67980;BME280;54760;47.490;19.030;2022-09-09T11:38:49;99805.00;;;44.39;13.25
67980;BME280;54760;47.490;19.030;2022-09-09T11:41:13;99808.03;;;44.43;13.64
67980;BME280;54760;47.490;19.030;2022-09-09T11:43:43;99798.69;;;43.17;14.25
67980;BME280;54760;47.490;19.030;2022-09-09T11:46:09;99793.38;;;42.94;14.88
67980;BME280;54760;47.490;19.030;2022-09-09T11:48:36;99786.94;;;43.29;14.79
67980;BME280;54760;47.490;19.030;2022-09-09T11:51:07;99782.97;;;42.06;16.41
67980;BME280;54760;47.490;19.030;2022-09-09T11:53:34;99795.37;;;40.52;17.29
67980;BME280;54760;47.490;19.030;2022-09-09T11:56:05;99804.19;;;38.21;19.92
67980;BME280;54760;47.490;19.030;2022-09-09T11:58:54;99802.06;;;38.22;20.19
67980;BME280;54760;47.490;19.030;2022-09-09T12:11:50;99805.09;;;33.52;25.55
67980;BME280;54760;47.490;19.030;2022-09-09T12:14:20;99818.19;;;33.65;25.23
67980;BME280;54760;47.490;19.030;2022-09-09T12:16:46;99828.38;;;34.75;24.85
67980;BME280;54760;47.490;19.030;2022-09-09T12:19:22;99829.84;;;35.41;23.20
67980;BME280;54760;47.490;19.030;2022-09-09T12:22:06;99819.63;;;37.08;21.12
67980;BME280;54760;47.490;19.030;2022-09-09T12:24:38;99817.31;;;37.16;21.15
67980;BME280;54760;47.490;19.030;2022-09-09T12:27:07;99817.53;;;35.96;22.65
67980;BME280;54760;47.490;19.030;2022-09-09T12:29:55;99820.66;;;35.04;23.97
67980;BME280;54760;47.490;19.030;2022-09-09T12:32:25;99809.69;;;36.87;21.22
67980;BME280;54760;47.490;19.030;2022-09-09T12:35:04;99797.03;;;37.87;20.16
67980;BME280;54760;47.490;19.030;2022-09-09T12:38:00;99783.03;;;38.38;20.17
67980;BME280;54760;47.490;19.030;2022-09-09T12:40:31;99796.13;;;37.85;19.99
67980;BME280;54760;47.490;19.030;2022-09-09T12:42:58;99791.50;;;38.71;19.35
67980;BME280;54760;47.490;19.030;2022-09-09T12:45:28;99788.28;;;38.65;20.24
67980;BME280;54760;47.490;19.030;2022-09-09T12:48:06;99781.75;;;38.87;18.77
67980;BME280;54760;47.490;19.030;2022-09-09T12:50:36;99778.56;;;38.70;19.23
67980;BME280;54760;47.490;19.030;2022-09-09T12:53:29;99780.56;;;38.32;19.34
67980;BME280;54760;47.490;19.030;2022-09-09T12:56:00;99777.84;;;37.66;20.38
67980;BME280;54760;47.490;19.030;2022-09-09T12:58:28;99772.50;;;38.52;19.58
67980;BME280;54760;47.490;19.030;2022-09-09T13:00:59;99777.81;;;38.23;19.43
67980;BME280;54760;47.490;19.030;2022-09-09T13:03:26;99763.44;;;38.44;20.12
67980;BME280;54760;47.490;19.030;2022-09-09T13:05:52;99765.22;;;37.81;19.99
67980;BME280;54760;47.490;19.030;2022-09-09T13:08:19;99767.13;;;37.34;20.26
67980;BME280;54760;47.490;19.030;2022-09-09T13:10:56;99748.97;;;36.75;21.46
67980;BME280;54760;47.490;19.030;2022-09-09T13:13:28;99744.91;;;36.17;21.47
67980;BME280;54760;47.490;19.030;2022-09-09T13:15:59;99740.53;;;37.20;20.70
67980;BME280;54760;47.490;19.030;2022-09-09T13:18:34;99741.91;;;36.98;20.37
67980;BME280;54760;47.490;19.030;2022-09-09T13:21:01;99741.00;;;36.22;21.18
67980;BME280;54760;47.490;19.030;2022-09-09T13:23:29;99735.50;;;36.04;21.50
67980;BME280;54760;47.490;19.030;2022-09-09T13:26:03;99737.59;;;33.77;24.80
67980;BME280;54760;47.490;19.030;2022-09-09T13:28:30;99740.81;;;32.36;26.89
67980;BME280;54760;47.490;19.030;2022-09-09T13:31:00;99746.28;;;32.84;26.88
67980;BME280;54760;47.490;19.030;2022-09-09T13:33:37;99735.44;;;32.90;26.74
67980;BME280;54760;47.490;19.030;2022-09-09T13:36:10;99742.44;;;33.06;26.28
67980;BME280;54760;47.490;19.030;2022-09-09T13:41:22;99743.19;;;32.47;26.39
67980;BME280;54760;47.490;19.030;2022-09-09T13:43:49;99738.75;;;32.37;26.32
67980;BME280;54760;47.490;19.030;2022-09-09T13:46:34;99736.63;;;31.88;27.76
67980;BME280;54760;47.490;19.030;2022-09-09T13:54:05;99726.81;;;31.49;29.17
67980;BME280;54760;47.490;19.030;2022-09-09T13:56:35;99730.47;;;31.34;28.71
67980;BME280;54760;47.490;19.030;2022-09-09T13:59:01;99726.75;;;31.96;28.75
67980;BME280;54760;47.490;19.030;2022-09-09T14:01:27;99716.88;;;31.40;27.78
67980;BME280;54760;47.490;19.030;2022-09-09T14:03:53;99716.28;;;31.81;26.41
67980;BME280;54760;47.490;19.030;2022-09-09T14:06:18;99714.22;;;31.42;25.96
67980;BME280;54760;47.490;19.030;2022-09-09T14:08:44;99702.53;;;32.10;25.80
67980;BME280;54760;47.490;19.030;2022-09-09T14:11:12;99707.72;;;31.64;26.28
67980;BME280;54760;47.490;19.030;2022-09-09T14:13:37;99704.94;;;31.02;26.89
67980;BME280;54760;47.490;19.030;2022-09-09T14:16:03;99700.06;;;31.02;27.48
67980;BME280;54760;47.490;19.030;2022-09-09T14:18:28;99703.13;;;29.90;28.56
67980;BME280;54760;47.490;19.030;2022-09-09T14:20:54;99704.16;;;29.72;29.10
67980;BME280;54760;47.490;19.030;2022-09-09T14:23:19;99706.88;;;30.16;28.41
67980;BME280;54760;47.490;19.030;2022-09-09T14:25:47;99704.66;;;30.44;29.01
67980;BME280;54760;47.490;19.030;2022-09-09T14:28:14;99707.28;;;30.20;28.54
67980;BME280;54760;47.490;19.030;2022-09-09T14:30:41;99704.63;;;30.22;28.70
67980;BME280;54760;47.490;19.030;2022-09-09T14:33:09;99712.59;;;29.49;30.17
67980;BME280;54760;47.490;19.030;2022-09-09T14:35:36;99712.28;;;29.24;31.05
67980;BME280;54760;47.490;19.030;2022-09-09T14:38:02;99704.81;;;29.35;31.61
67980;BME280;54760;47.490;19.030;2022-09-09T14:40:28;99691.22;;;29.25;30.53
67980;BME280;54760;47.490;19.030;2022-09-09T14:42:53;99695.87;;;29.59;30.05
67980;BME280;54760;47.490;19.030;2022-09-09T14:45:19;99696.03;;;29.46;30.13
67980;BME280;54760;47.490;19.030;2022-09-09T14:47:46;99689.91;;;29.85;31.15
67980;BME280;54760;47.490;19.030;2022-09-09T14:50:11;99689.22;;;30.23;30.66
67980;BME280;54760;47.490;19.030;2022-09-09T14:52:37;99685.59;;;29.84;29.71
67980;BME280;54760;47.490;19.030;2022-09-09T14:55:03;99681.69;;;30.10;30.04
67980;BME280;54760;47.490;19.030;2022-09-09T14:57:28;99686.59;;;30.47;31.58
67980;BME280;54760;47.490;19.030;2022-09-09T14:59:54;99688.25;;;30.12;30.75
67980;BME280;54760;47.490;19.030;2022-09-09T15:02:19;99686.97;;;30.13;28.54
67980;BME280;54760;47.490;19.030;2022-09-09T15:04:45;99685.81;;;29.94;29.23